Nortonville, Kansas
Current Conditions -  °F | °C
As of 6:52 AM on Thursday 30 Oct 2014 (Local Time) from KLWC Reporting Station
Few Clouds Few Clouds  
Wind Chill: 49°   Ceiling: Unl
Heat Index: 49°   Visibility: 10mi
Dew Point: 40°   Wind: 3mph
Humidity: 71%   Direction: 170°S
Pressure: 30"   Gusts: NA
Location:  39.42°N, 95.33°W
Report Text: KLWC 301152Z AUTO 17003KT 10SM FEW060 09/04 A3000 RMK AO2 SLP161 T00940044 10111 20044 55009
Loading
Personal Weather Stations






























Interactive Weather Map
Tropical Storm Tracking
New forecast layout! Learn more

10-Day Weather Forecast

Advertisements
Track Severe Weather on mobile